Startpagina
METAR-TAF:

METAR-TAF

Vliegvelden :

Rijsel, Frankrijk

Aéroport de Lille-Lesquin

breedte: 50-34N, lengte: 003-06E, hoogte: 48 m

Actueel weer

Dit bericht is 21 minuten geleden gemaakt, om 00:30 UTC
Wind 10 kt uit het westzuidwesten
Temperatuur 18°C
Vochtigheid 88%
Druk 1008 hPa
Zicht 10 km of meer
Verspreide wolken op 1500 ft
Geheel bewolkt op 2600 ft

METAR: LFQQ 270030Z AUTO 25010KT 9999 SCT015 OVC026 18/16 Q1008 TEMPO 25015G25KT BKN013

Tijdstip: 02:51 (00:51 UTC)

Verwachting

Dit bericht is 1 uur en het 51 minuten geleden gemaakt, om 23:00 UTC
Verwachting geldig van 27 om 00 UTC tot 28 om 06 UTC
Wind 10 kt uit het westzuidwesten
Zicht 10 km of meer
Gebroken wolken op 2000 ft
Geheel bewolkt op 3500 ft
Tijdelijke
van 27 om 00 UTC tot 27 om 03 UTC
Wind 15 kt uit het westzuidwesten met uitschieters tot 25 kt
Gebroken wolken op 1300 ft

TAF: LFQQ 262300Z 2700/2806 24010KT 9999 BKN020 OVC035 TEMPO 2700/2703 25015G25KT BKN013

Waarnemingen en weersverwachtingen van meer dan 4000 vliegvelden (METAR en TAF).

De beschikbare stations zijn de gele en rode punten op de kaart.

Ga met uw muis naar het station om de naam te zien.

Klik dan om waarnemingen en weersverwachtingen te zien.

kaart wijzigen: klik op de groene knoppen met een zwart kruis om in te zoomen, op de groene knop met een streepje om uit te zoomen of op de groene pijlen voor aangrenzende kaarten.


METAR-TAF: